Time;durP1;ratioP1;P1;durP2;ratioP2;P2;SDS_P1;SDS_P2;PMS_P1;PMS_P2;Temp;Humidity;BMP_temperature;BMP_pressure;BME280_temperature;BME280_humidity;BME280_pressure;Samples;Min_cycle;Max_cycle;Signal;HPM_P1;HPM_P2
2023/06/16 00:01:23;;;;;;;5.00;3.60;;;;;;;;;;5061649;28;20287;-81
2023/06/16 00:03:51;;;;;;;4.88;4.28;;;;;;;;;;5062746;28;20209;-80
2023/06/16 00:06:19;;;;;;;4.38;3.30;;;;;;;;;;5068265;28;20213;-80
2023/06/16 00:08:47;;;;;;;5.60;3.63;;;;;;;;;;5053188;28;20245;-80
2023/06/16 00:11:14;;;;;;;4.00;3.60;;;;;;;;;;5060163;28;20237;-80
2023/06/16 00:13:42;;;;;;;7.05;3.90;;;;;;;;;;5069187;28;20213;-80
2023/06/16 00:16:10;;;;;;;4.78;3.90;;;;;;;;;;5059932;28;20212;-80
2023/06/16 00:18:43;;;;;;;5.60;3.80;;;;;;;;;;5067101;28;20209;-80
2023/06/16 00:21:13;;;;;;;7.27;3.70;;;;;;;;;;5062188;28;20238;-81
2023/06/16 00:23:40;;;;;;;4.27;3.60;;;;;;;;;;5063378;28;20213;-80
2023/06/16 00:26:07;;;;;;;3.80;3.47;;;;;;;;;;5051038;28;20221;-81
2023/06/16 00:28:34;;;;;;;4.63;3.27;;;;;;;;;;5059181;28;20230;-80
2023/06/16 00:31:01;;;;;;;6.10;3.47;;;;;;;;;;5066598;28;20251;-80
2023/06/16 00:33:29;;;;;;;5.93;3.90;;;;;;;;;;5066272;28;20213;-80
2023/06/16 00:35:57;;;;;;;6.60;3.47;;;;;;;;;;5066000;28;20233;-80
2023/06/16 00:38:24;;;;;;;5.53;4.03;;;;;;;;;;5066223;28;20221;-80
2023/06/16 00:40:51;;;;;;;6.70;3.80;;;;;;;;;;5071133;28;20233;-80
2023/06/16 00:43:18;;;;;;;5.00;3.77;;;;;;;;;;5073170;28;20209;-81
2023/06/16 00:45:45;;;;;;;5.70;3.77;;;;;;;;;;5067552;28;20593;-80
2023/06/16 00:48:12;;;;;;;3.87;3.50;;;;;;;;;;5071112;28;20229;-80
2023/06/16 00:50:41;;;;;;;4.13;3.73;;;;;;;;;;5065861;28;20246;-80
2023/06/16 00:53:08;;;;;;;7.67;3.90;;;;;;;;;;5067684;28;20213;-80
2023/06/16 00:55:35;;;;;;;4.80;3.77;;;;;;;;;;5063522;28;20703;-80
2023/06/16 00:58:03;;;;;;;7.00;3.97;;;;;;;;;;5067132;28;20210;-81
2023/06/16 01:00:32;;;;;;;4.37;3.70;;;;;;;;;;5064059;28;20362;-81
2023/06/16 01:03:02;;;;;;;4.57;3.97;;;;;;;;;;5064534;28;20212;-80
2023/06/16 01:05:29;;;;;;;4.37;3.40;;;;;;;;;;5062234;28;20229;-80
2023/06/16 01:08:02;;;;;;;5.67;3.67;;;;;;;;;;5069195;28;20233;-81
2023/06/16 01:10:34;;;;;;;4.33;3.80;;;;;;;;;;5054301;28;20237;-81
2023/06/16 01:13:07;;;;;;;5.67;4.17;;;;;;;;;;5069934;28;20210;-81
2023/06/16 01:15:35;;;;;;;4.27;3.40;;;;;;;;;;5064770;28;20714;-81
2023/06/16 01:18:02;;;;;;;4.63;3.53;;;;;;;;;;5070389;28;20218;-80
2023/06/16 01:20:37;;;;;;;7.33;3.77;;;;;;;;;;5064220;28;20237;-80
2023/06/16 01:23:14;;;;;;;3.97;3.60;;;;;;;;;;5073697;28;20213;-80
2023/06/16 01:25:44;;;;;;;5.70;4.17;;;;;;;;;;5061536;28;20225;-80
2023/06/16 01:28:11;;;;;;;5.97;4.00;;;;;;;;;;5070269;28;20670;-80
2023/06/16 01:30:42;;;;;;;5.77;3.97;;;;;;;;;;5065614;28;20715;-80
2023/06/16 01:33:10;;;;;;;4.37;3.90;;;;;;;;;;5065574;28;20213;-80
2023/06/16 01:35:38;;;;;;;4.33;3.93;;;;;;;;;;5072762;28;20229;-80
2023/06/16 01:38:05;;;;;;;4.70;3.90;;;;;;;;;;5066745;28;20263;-80
2023/06/16 01:40:32;;;;;;;6.00;3.80;;;;;;;;;;5063407;28;20718;-80
2023/06/16 01:43:02;;;;;;;6.43;4.50;;;;;;;;;;5061535;28;20707;-80
2023/06/16 01:45:29;;;;;;;4.97;4.30;;;;;;;;;;5063139;28;20238;-80
2023/06/16 01:47:56;;;;;;;9.13;4.40;;;;;;;;;;5066686;28;20209;-80
2023/06/16 01:50:23;;;;;;;4.27;3.93;;;;;;;;;;5065451;28;20245;-80
2023/06/16 01:52:50;;;;;;;6.63;4.10;;;;;;;;;;5060108;28;20683;-80
2023/06/16 01:55:17;;;;;;;4.20;3.80;;;;;;;;;;5061832;28;20233;-80
2023/06/16 01:57:44;;;;;;;7.43;4.30;;;;;;;;;;5066147;28;20217;-80
2023/06/16 02:00:15;;;;;;;4.53;4.00;;;;;;;;;;5064801;28;20241;-80
2023/06/16 02:02:44;;;;;;;4.17;3.70;;;;;;;;;;5072971;28;20205;-80
2023/06/16 02:05:13;;;;;;;4.33;3.93;;;;;;;;;;5057094;28;20717;-80
2023/06/16 02:07:42;;;;;;;3.97;3.57;;;;;;;;;;5056788;28;20263;-80
2023/06/16 02:10:09;;;;;;;5.80;3.77;;;;;;;;;;5072431;28;20264;-80
2023/06/16 02:12:36;;;;;;;4.30;3.90;;;;;;;;;;5062998;28;20578;-80
2023/06/16 02:15:04;;;;;;;5.83;4.33;;;;;;;;;;5063123;28;20603;-80
2023/06/16 02:17:32;;;;;;;6.13;3.97;;;;;;;;;;5061676;28;20209;-80
2023/06/16 02:19:59;;;;;;;4.67;4.17;;;;;;;;;;5060383;28;20738;-80
2023/06/16 02:22:26;;;;;;;4.33;3.90;;;;;;;;;;5070808;28;20237;-80
2023/06/16 02:24:54;;;;;;;5.20;4.00;;;;;;;;;;5071073;28;20283;-80
2023/06/16 02:27:21;;;;;;;4.90;3.97;;;;;;;;;;5056622;28;20210;-80
2023/06/16 02:29:48;;;;;;;5.00;4.10;;;;;;;;;;5072307;28;20241;-80
2023/06/16 02:32:15;;;;;;;4.77;4.30;;;;;;;;;;5064368;28;20237;-80
2023/06/16 02:34:44;;;;;;;4.80;3.97;;;;;;;;;;5067869;28;20719;-80
2023/06/16 02:37:12;;;;;;;6.80;4.07;;;;;;;;;;5068704;28;20224;-80
2023/06/16 02:39:40;;;;;;;6.90;4.57;;;;;;;;;;5060831;28;20237;-80
2023/06/16 02:42:08;;;;;;;4.43;4.03;;;;;;;;;;5053465;28;20238;-80
2023/06/16 02:44:35;;;;;;;6.70;4.10;;;;;;;;;;5063407;28;21135;-80
2023/06/16 02:47:03;;;;;;;4.63;4.13;;;;;;;;;;5064405;28;20689;-80
2023/06/16 02:49:30;;;;;;;3.87;3.57;;;;;;;;;;5062788;28;20237;-80
2023/06/16 02:51:59;;;;;;;8.03;4.10;;;;;;;;;;5059567;28;20268;-80
2023/06/16 02:54:26;;;;;;;7.83;4.57;;;;;;;;;;5067429;28;20226;-80
2023/06/16 02:56:53;;;;;;;4.43;4.03;;;;;;;;;;5061577;28;20750;-80
2023/06/16 02:59:20;;;;;;;4.40;4.00;;;;;;;;;;5066716;28;20225;-80
2023/06/16 03:01:47;;;;;;;4.33;3.90;;;;;;;;;;5069419;28;20232;-80
2023/06/16 03:04:14;;;;;;;4.10;3.70;;;;;;;;;;5060801;28;20745;-80
2023/06/16 03:06:44;;;;;;;5.23;3.97;;;;;;;;;;5056028;28;20574;-80
2023/06/16 03:09:13;;;;;;;5.00;3.90;;;;;;;;;;5053038;28;20253;-80
2023/06/16 03:11:40;;;;;;;6.63;4.03;;;;;;;;;;5061800;28;20233;-80
2023/06/16 03:14:07;;;;;;;4.23;3.60;;;;;;;;;;5061374;28;20241;-80
2023/06/16 03:16:35;;;;;;;4.63;3.80;;;;;;;;;;5071991;28;20206;-80
2023/06/16 03:19:02;;;;;;;6.67;3.77;;;;;;;;;;5066571;28;20229;-80
2023/06/16 03:21:29;;;;;;;7.20;4.20;;;;;;;;;;5062099;28;20226;-80
2023/06/16 03:23:56;;;;;;;6.70;4.27;;;;;;;;;;5067323;28;20241;-80
2023/06/16 03:26:24;;;;;;;4.57;3.60;;;;;;;;;;5060854;28;20217;-80
2023/06/16 03:28:52;;;;;;;4.73;3.93;;;;;;;;;;5057895;28;20289;-80
2023/06/16 03:31:19;;;;;;;5.73;3.93;;;;;;;;;;5056422;28;20233;-80
2023/06/16 03:33:46;;;;;;;4.20;3.80;;;;;;;;;;5068434;28;20585;-79
2023/06/16 03:36:13;;;;;;;5.27;3.97;;;;;;;;;;5060914;28;20213;-79
2023/06/16 03:38:40;;;;;;;4.53;4.13;;;;;;;;;;5064905;28;20209;-80
2023/06/16 03:41:07;;;;;;;5.27;3.80;;;;;;;;;;5057157;28;20234;-80
2023/06/16 03:43:35;;;;;;;5.40;3.97;;;;;;;;;;5063094;28;20260;-80
2023/06/16 03:46:03;;;;;;;4.03;3.67;;;;;;;;;;5064809;28;20209;-80
2023/06/16 03:48:30;;;;;;;4.77;3.90;;;;;;;;;;5064860;28;20244;-79
2023/06/16 03:50:57;;;;;;;5.97;4.10;;;;;;;;;;5069537;28;20237;-79
2023/06/16 03:53:24;;;;;;;4.30;3.90;;;;;;;;;;5064201;28;20244;-79
2023/06/16 03:55:51;;;;;;;4.77;4.20;;;;;;;;;;5067278;28;20233;-79
2023/06/16 03:58:18;;;;;;;5.97;4.50;;;;;;;;;;5052152;28;20210;-79
2023/06/16 04:00:46;;;;;;;5.27;3.80;;;;;;;;;;5063211;28;20233;-79
2023/06/16 04:03:15;;;;;;;5.27;4.17;;;;;;;;;;5063542;28;20212;-79
2023/06/16 04:05:42;;;;;;;4.37;3.97;;;;;;;;;;5056036;28;20327;-79
2023/06/16 04:08:09;;;;;;;4.00;3.67;;;;;;;;;;5056345;28;20587;-80
2023/06/16 04:10:36;;;;;;;4.87;4.13;;;;;;;;;;5059467;28;20328;-79
2023/06/16 04:13:03;;;;;;;6.20;4.70;;;;;;;;;;5056675;28;20210;-79
2023/06/16 04:15:30;;;;;;;4.37;3.97;;;;;;;;;;5068929;28;20221;-79
2023/06/16 04:17:59;;;;;;;5.23;4.00;;;;;;;;;;5058263;28;20233;-79
2023/06/16 04:20:26;;;;;;;4.37;3.97;;;;;;;;;;5060045;28;20230;-79
2023/06/16 04:22:53;;;;;;;6.10;3.93;;;;;;;;;;5071699;28;20689;-79
2023/06/16 04:25:21;;;;;;;4.27;3.70;;;;;;;;;;5071240;28;20229;-79
2023/06/16 04:27:49;;;;;;;5.57;3.87;;;;;;;;;;5067374;28;20228;-79
2023/06/16 04:30:22;;;;;;;6.80;4.20;;;;;;;;;;5059371;28;20234;-79
2023/06/16 04:32:49;;;;;;;6.13;4.20;;;;;;;;;;5054768;28;20201;-79
2023/06/16 04:35:17;;;;;;;8.73;4.60;;;;;;;;;;5065489;28;20252;-79
2023/06/16 04:37:44;;;;;;;10.17;4.30;;;;;;;;;;5054775;28;20225;-79
2023/06/16 04:40:12;;;;;;;5.67;4.03;;;;;;;;;;5061722;28;20649;-79
2023/06/16 04:42:39;;;;;;;4.83;4.00;;;;;;;;;;5062264;28;20262;-79
2023/06/16 04:45:07;;;;;;;6.20;4.50;;;;;;;;;;5071018;28;20221;-79
2023/06/16 04:47:35;;;;;;;4.40;4.00;;;;;;;;;;5061240;28;20206;-79
2023/06/16 04:50:02;;;;;;;4.50;4.03;;;;;;;;;;5058934;28;20249;-80
2023/06/16 04:52:31;;;;;;;6.50;4.10;;;;;;;;;;5067976;28;20214;-80
2023/06/16 04:54:58;;;;;;;4.80;4.23;;;;;;;;;;5059446;28;20249;-80
2023/06/16 04:57:25;;;;;;;5.10;4.60;;;;;;;;;;5059478;28;20683;-79
2023/06/16 04:59:52;;;;;;;5.60;4.53;;;;;;;;;;5070577;28;20229;-80
2023/06/16 05:02:19;;;;;;;4.27;3.87;;;;;;;;;;5071135;28;20229;-80
2023/06/16 05:04:47;;;;;;;5.03;4.00;;;;;;;;;;5060284;28;20245;-80
2023/06/16 05:07:15;;;;;;;4.50;4.10;;;;;;;;;;5059271;28;20292;-79
2023/06/16 05:09:43;;;;;;;7.07;4.40;;;;;;;;;;5067771;28;20237;-79
2023/06/16 05:12:10;;;;;;;5.37;4.37;;;;;;;;;;5053377;28;20724;-79
2023/06/16 05:14:37;;;;;;;6.10;4.07;;;;;;;;;;5067143;28;20241;-80
2023/06/16 05:17:05;;;;;;;5.90;4.60;;;;;;;;;;5052146;28;20197;-80
2023/06/16 05:19:32;;;;;;;6.33;4.97;;;;;;;;;;5062911;28;20592;-79
2023/06/16 05:21:59;;;;;;;7.80;4.70;;;;;;;;;;5059993;28;20674;-79
2023/06/16 05:24:27;;;;;;;7.07;4.50;;;;;;;;;;5060856;28;20229;-79
2023/06/16 05:26:55;;;;;;;7.00;4.70;;;;;;;;;;5066021;28;20201;-78
2023/06/16 05:29:22;;;;;;;6.77;5.03;;;;;;;;;;5073569;28;20240;-78
2023/06/16 05:31:50;;;;;;;5.40;4.90;;;;;;;;;;5065807;28;20229;-79
2023/06/16 05:34:17;;;;;;;6.67;4.93;;;;;;;;;;5065253;28;20268;-79
2023/06/16 05:36:44;;;;;;;5.50;4.90;;;;;;;;;;5063162;28;20206;-79
2023/06/16 05:39:12;;;;;;;8.00;4.67;;;;;;;;;;5061751;28;20772;-79
2023/06/16 05:41:39;;;;;;;5.60;5.10;;;;;;;;;;5064300;28;20261;-79
2023/06/16 05:44:07;;;;;;;7.30;5.30;;;;;;;;;;5068146;28;20238;-79
2023/06/16 05:46:35;;;;;;;8.50;5.30;;;;;;;;;;5055202;28;20210;-79
2023/06/16 05:49:02;;;;;;;6.07;5.47;;;;;;;;;;5065304;28;20236;-79
2023/06/16 05:51:29;;;;;;;5.00;4.57;;;;;;;;;;5065009;28;20223;-79
2023/06/16 05:53:56;;;;;;;6.30;5.03;;;;;;;;;;5061714;28;20240;-79
2023/06/16 05:56:24;;;;;;;5.30;4.80;;;;;;;;;;5063685;28;20206;-79
2023/06/16 05:58:51;;;;;;;6.37;5.00;;;;;;;;;;5070463;28;20236;-79
2023/06/16 06:01:19;;;;;;;6.83;5.40;;;;;;;;;;5070252;28;20628;-79
2023/06/16 06:03:47;;;;;;;6.17;5.03;;;;;;;;;;5078967;28;20660;-81
2023/06/16 06:06:14;;;;;;;5.33;4.63;;;;;;;;;;5073802;28;20201;-81
2023/06/16 06:08:41;;;;;;;7.17;4.77;;;;;;;;;;5073071;28;20710;-79
2023/06/16 06:11:08;;;;;;;7.10;4.87;;;;;;;;;;5070748;28;20233;-79
2023/06/16 06:13:35;;;;;;;6.83;4.50;;;;;;;;;;5071995;28;20205;-79
2023/06/16 06:16:02;;;;;;;5.13;4.63;;;;;;;;;;5064864;28;20565;-79
2023/06/16 06:18:31;;;;;;;9.77;4.60;;;;;;;;;;5073513;28;20198;-79
2023/06/16 06:20:58;;;;;;;7.20;4.70;;;;;;;;;;5064861;28;20639;-80
2023/06/16 06:23:25;;;;;;;6.57;5.17;;;;;;;;;;5068561;28;20693;-80
2023/06/16 06:25:52;;;;;;;9.97;5.23;;;;;;;;;;5072769;28;20229;-79
2023/06/16 06:28:19;;;;;;;8.37;5.30;;;;;;;;;;5073823;28;20206;-79
2023/06/16 06:30:46;;;;;;;6.20;4.43;;;;;;;;;;5068499;28;20240;-79
2023/06/16 06:33:13;;;;;;;11.43;4.60;;;;;;;;;;5067686;28;20604;-79
2023/06/16 06:35:42;;;;;;;7.03;5.43;;;;;;;;;;5056266;28;20240;-79
2023/06/16 06:38:09;;;;;;;6.87;4.80;;;;;;;;;;5072934;28;20220;-79
2023/06/16 06:40:36;;;;;;;7.30;4.60;;;;;;;;;;5066863;28;20241;-79
2023/06/16 06:43:03;;;;;;;9.30;4.83;;;;;;;;;;5060775;28;20213;-79
2023/06/16 06:45:30;;;;;;;6.27;4.60;;;;;;;;;;5068707;28;20237;-79
2023/06/16 06:47:57;;;;;;;5.70;5.10;;;;;;;;;;5068244;28;20228;-79
2023/06/16 06:50:25;;;;;;;7.63;4.60;;;;;;;;;;5067769;28;20225;-79
2023/06/16 06:52:53;;;;;;;6.43;5.15;;;;;;;;;;5068945;28;20214;-79
2023/06/16 06:55:20;;;;;;;7.28;4.53;;;;;;;;;;5051862;28;20228;-79
2023/06/16 06:57:49;;;;;;;6.18;3.85;;;;;;;;;;5062170;28;20213;-78
2023/06/16 07:00:16;;;;;;;5.88;4.45;;;;;;;;;;5071562;28;20230;-78
2023/06/16 07:02:44;;;;;;;5.57;4.32;;;;;;;;;;5054927;28;20209;-78
2023/06/16 07:05:11;;;;;;;6.85;4.53;;;;;;;;;;5063207;28;20278;-77
2023/06/16 07:07:38;;;;;;;7.60;4.75;;;;;;;;;;5053983;28;20212;-78
2023/06/16 07:10:07;;;;;;;8.52;4.50;;;;;;;;;;5064718;28;20225;-78
2023/06/16 07:12:34;;;;;;;6.10;4.40;;;;;;;;;;5062923;28;20221;-78
2023/06/16 07:15:01;;;;;;;6.95;4.25;;;;;;;;;;5059434;28;20230;-78
2023/06/16 07:17:30;;;;;;;11.07;4.50;;;;;;;;;;5067938;28;20208;-78
2023/06/16 07:19:57;;;;;;;6.63;4.18;;;;;;;;;;5054820;28;20286;-78
2023/06/16 07:22:24;;;;;;;6.55;4.68;;;;;;;;;;5056063;28;20599;-78
2023/06/16 07:24:51;;;;;;;6.07;4.53;;;;;;;;;;5045972;28;20708;-78
2023/06/16 07:27:19;;;;;;;5.88;4.55;;;;;;;;;;5059839;28;20672;-77
2023/06/16 07:29:46;;;;;;;7.05;4.03;;;;;;;;;;5053013;28;20241;-78
2023/06/16 07:32:14;;;;;;;6.43;4.45;;;;;;;;;;5065273;28;20226;-78
2023/06/16 07:34:41;;;;;;;6.57;4.85;;;;;;;;;;5062287;28;20333;-78
2023/06/16 07:37:08;;;;;;;6.45;4.32;;;;;;;;;;5062752;28;20210;-79
2023/06/16 07:39:36;;;;;;;6.10;3.97;;;;;;;;;;5054406;28;20240;-79
2023/06/16 07:42:03;;;;;;;9.30;4.10;;;;;;;;;;5070524;28;20240;-78
2023/06/16 07:44:31;;;;;;;5.05;3.85;;;;;;;;;;5069900;28;20315;-78
2023/06/16 07:46:58;;;;;;;5.57;4.03;;;;;;;;;;5058068;28;20706;-78
2023/06/16 07:49:26;;;;;;;4.82;3.83;;;;;;;;;;5049798;28;20246;-78
2023/06/16 07:51:53;;;;;;;6.38;3.80;;;;;;;;;;5053183;28;20236;-79
2023/06/16 07:54:20;;;;;;;4.75;3.65;;;;;;;;;;5066481;28;20233;-78
2023/06/16 07:56:48;;;;;;;3.88;3.47;;;;;;;;;;5051177;28;20217;-78
2023/06/16 07:59:15;;;;;;;5.88;3.72;;;;;;;;;;5050003;28;20663;-78
2023/06/16 08:01:44;;;;;;;3.45;3.03;;;;;;;;;;5063835;28;20233;-79
2023/06/16 08:04:11;;;;;;;7.00;3.40;;;;;;;;;;5069363;28;20732;-78
2023/06/16 08:06:39;;;;;;;3.70;3.30;;;;;;;;;;5053451;28;20205;-79
2023/06/16 08:09:07;;;;;;;5.22;3.08;;;;;;;;;;5064553;28;20311;-83
2023/06/16 08:11:35;;;;;;;5.00;3.00;;;;;;;;;;5051949;28;20234;-78
2023/06/16 08:14:02;;;;;;;6.72;3.40;;;;;;;;;;5049708;28;20234;-78
2023/06/16 08:16:29;;;;;;;4.93;3.45;;;;;;;;;;5053479;28;20208;-78
2023/06/16 08:18:59;;;;;;;4.40;3.13;;;;;;;;;;5048863;28;20234;-78
2023/06/16 08:21:26;;;;;;;5.18;3.63;;;;;;;;;;5057791;28;20232;-79
2023/06/16 08:23:53;;;;;;;3.47;3.15;;;;;;;;;;5052855;28;20283;-79
2023/06/16 08:26:20;;;;;;;4.82;3.20;;;;;;;;;;5059504;28;20222;-78
2023/06/16 08:28:47;;;;;;;5.38;3.38;;;;;;;;;;5050447;28;20228;-79
2023/06/16 08:31:14;;;;;;;3.42;2.67;;;;;;;;;;5058237;28;20239;-78
2023/06/16 08:33:41;;;;;;;3.95;2.92;;;;;;;;;;5066875;28;20216;-78
2023/06/16 08:36:10;;;;;;;3.03;2.67;;;;;;;;;;5065092;28;20236;-78
2023/06/16 08:38:37;;;;;;;4.65;3.13;;;;;;;;;;5049491;28;20214;-78
2023/06/16 08:41:06;;;;;;;3.00;2.70;;;;;;;;;;5054665;28;20791;-78
2023/06/16 08:43:35;;;;;;;3.50;3.10;;;;;;;;;;5069525;28;20730;-78
2023/06/16 08:46:03;;;;;;;6.68;2.78;;;;;;;;;;5057265;28;20240;-78
2023/06/16 08:48:30;;;;;;;4.93;2.75;;;;;;;;;;5049848;28;20232;-78
2023/06/16 08:51:00;;;;;;;3.47;2.80;;;;;;;;;;5049077;28;20238;-78
2023/06/16 08:53:31;;;;;;;2.75;2.55;;;;;;;;;;5052159;28;20264;-79
2023/06/16 08:55:58;;;;;;;3.22;2.83;;;;;;;;;;5067380;28;20234;-79
2023/06/16 08:58:27;;;;;;;3.22;2.88;;;;;;;;;;5053567;28;20214;-78
2023/06/16 09:00:54;;;;;;;3.17;2.88;;;;;;;;;;5057528;28;20233;-78
2023/06/16 09:03:21;;;;;;;4.45;3.05;;;;;;;;;;5053585;28;20217;-78
2023/06/16 09:05:48;;;;;;;3.03;2.72;;;;;;;;;;5052476;28;20237;-78
2023/06/16 09:08:15;;;;;;;3.10;2.80;;;;;;;;;;5055049;28;20614;-78
2023/06/16 09:10:44;;;;;;;3.15;2.85;;;;;;;;;;5072764;28;20233;-78
2023/06/16 09:13:16;;;;;;;3.65;2.92;;;;;;;;;;5073606;28;20225;-80
2023/06/16 09:15:46;;;;;;;5.30;2.70;;;;;;;;;;5068327;28;20548;-80
2023/06/16 09:18:14;;;;;;;2.95;2.65;;;;;;;;;;5066087;28;20201;-80
2023/06/16 09:20:51;;;;;;;4.68;4.20;;;;;;;;;;5067513;28;20730;-80
2023/06/16 09:23:27;;;;;;;3.00;2.70;;;;;;;;;;5072251;28;20674;-81
2023/06/16 09:25:55;;;;;;;3.25;2.95;;;;;;;;;;5056406;28;20257;-80
2023/06/16 09:28:34;;;;;;;4.22;3.65;;;;;;;;;;5068912;28;20194;-79
2023/06/16 09:31:02;;;;;;;2.90;2.53;;;;;;;;;;5062905;28;20592;-80
2023/06/16 09:33:30;;;;;;;5.03;3.08;;;;;;;;;;5053529;28;20860;-80
2023/06/16 09:35:58;;;;;;;3.92;2.78;;;;;;;;;;5072207;28;20233;-80
2023/06/16 09:38:25;;;;;;;3.17;2.70;;;;;;;;;;5073645;28;20205;-80
2023/06/16 09:40:52;;;;;;;2.90;2.65;;;;;;;;;;5073050;28;20233;-80
2023/06/16 09:43:21;;;;;;;3.83;2.92;;;;;;;;;;5059853;28;20209;-79
2023/06/16 09:45:57;;;;;;;3.55;3.13;;;;;;;;;;5052657;28;20313;-80
2023/06/16 09:48:26;;;;;;;8.23;3.00;;;;;;;;;;5068111;28;20200;-80
2023/06/16 09:50:54;;;;;;;3.20;2.90;;;;;;;;;;5064721;28;20778;-80
2023/06/16 09:53:23;;;;;;;3.83;2.50;;;;;;;;;;5073408;28;20271;-80
2023/06/16 09:55:51;;;;;;;3.42;2.80;;;;;;;;;;5061669;28;20233;-80
2023/06/16 09:58:18;;;;;;;3.13;2.83;;;;;;;;;;5066659;28;20206;-80
2023/06/16 10:00:47;;;;;;;6.40;2.83;;;;;;;;;;5056666;28;20237;-80
2023/06/16 10:03:14;;;;;;;7.32;3.03;;;;;;;;;;5057763;28;20209;-80
2023/06/16 10:05:42;;;;;;;4.70;2.80;;;;;;;;;;5055576;28;20649;-80
2023/06/16 10:08:09;;;;;;;3.67;2.72;;;;;;;;;;5067026;28;20628;-80
2023/06/16 10:10:38;;;;;;;3.25;2.97;;;;;;;;;;5056015;28;20238;-80
2023/06/16 10:13:07;;;;;;;4.47;2.70;;;;;;;;;;5052855;28;20206;-80
2023/06/16 10:15:36;;;;;;;2.92;2.67;;;;;;;;;;5063115;28;20237;-79
2023/06/16 10:18:08;;;;;;;3.47;2.53;;;;;;;;;;5057593;28;20233;-79
2023/06/16 10:20:37;;;;;;;3.00;2.60;;;;;;;;;;5060052;28;20237;-78
2023/06/16 10:23:04;;;;;;;4.82;2.97;;;;;;;;;;5063548;28;20202;-79
2023/06/16 10:25:32;;;;;;;3.58;2.90;;;;;;;;;;5049163;28;20755;-79
2023/06/16 10:28:00;;;;;;;3.28;2.50;;;;;;;;;;5062688;28;20216;-79
2023/06/16 10:30:28;;;;;;;3.08;2.78;;;;;;;;;;5065191;28;20649;-79
2023/06/16 10:32:58;;;;;;;3.40;3.10;;;;;;;;;;5060879;28;20249;-80
2023/06/16 10:35:26;;;;;;;3.63;2.97;;;;;;;;;;5056812;28;20275;-79
2023/06/16 10:37:54;;;;;;;3.40;3.10;;;;;;;;;;5061286;28;20618;-80
2023/06/16 10:40:22;;;;;;;3.80;3.00;;;;;;;;;;5051176;28;20230;-79
2023/06/16 10:42:49;;;;;;;5.78;3.45;;;;;;;;;;5051732;28;20230;-79
2023/06/16 10:45:24;;;;;;;5.93;2.70;;;;;;;;;;5060324;28;20695;-81
2023/06/16 10:47:58;;;;;;;5.82;3.10;;;;;;;;;;5054318;28;20212;-80
2023/06/16 10:50:32;;;;;;;3.03;2.75;;;;;;;;;;5065430;28;20241;-81
2023/06/16 10:53:09;;;;;;;3.03;2.70;;;;;;;;;;5070280;28;20707;-80
2023/06/16 10:55:38;;;;;;;5.53;3.00;;;;;;;;;;5063632;28;20229;-79
2023/06/16 10:58:26;;;;;;;2.85;2.65;;;;;;;;;;5051472;28;20218;-80
2023/06/16 11:01:14;;;;;;;5.63;3.10;;;;;;;;;;5060087;28;20237;-80
2023/06/16 11:03:44;;;;;;;3.90;2.80;;;;;;;;;;5049854;28;20213;-80
2023/06/16 11:06:13;;;;;;;3.22;2.60;;;;;;;;;;5054625;28;20769;-80
2023/06/16 11:08:58;;;;;;;5.03;3.38;;;;;;;;;;5053367;28;20210;-80
2023/06/16 11:11:33;;;;;;;5.97;3.03;;;;;;;;;;5065177;28;20825;-79
2023/06/16 11:14:01;;;;;;;4.68;3.30;;;;;;;;;;5059512;28;20225;-80
2023/06/16 11:16:28;;;;;;;4.38;3.03;;;;;;;;;;5058903;28;20198;-80
2023/06/16 11:18:55;;;;;;;3.63;3.13;;;;;;;;;;5068462;28;20240;-79
2023/06/16 11:21:25;;;;;;;3.50;3.20;;;;;;;;;;5054489;28;20367;-80
2023/06/16 11:23:52;;;;;;;3.50;3.15;;;;;;;;;;5060031;28;20644;-80
2023/06/16 11:26:21;;;;;;;2.97;2.67;;;;;;;;;;5062445;28;20201;-80
2023/06/16 11:28:49;;;;;;;4.93;3.15;;;;;;;;;;5070037;28;20205;-79
2023/06/16 11:31:16;;;;;;;5.45;2.97;;;;;;;;;;5052875;28;20233;-79
2023/06/16 11:33:43;;;;;;;6.68;3.28;;;;;;;;;;5057130;28;20688;-80
2023/06/16 11:36:14;;;;;;;4.38;3.10;;;;;;;;;;5054528;28;20584;-79
2023/06/16 11:38:44;;;;;;;3.80;2.75;;;;;;;;;;5061920;28;20205;-79
2023/06/16 11:41:17;;;;;;;3.47;2.75;;;;;;;;;;5070077;28;20618;-79
2023/06/16 11:43:44;;;;;;;3.08;2.78;;;;;;;;;;5062195;28;20221;-79
2023/06/16 11:46:12;;;;;;;4.90;2.60;;;;;;;;;;5057449;28;20206;-79
2023/06/16 11:48:39;;;;;;;3.05;2.85;;;;;;;;;;5063608;28;20263;-80
2023/06/16 11:51:06;;;;;;;4.38;3.35;;;;;;;;;;5061392;28;20726;-79
2023/06/16 11:53:33;;;;;;;3.10;2.90;;;;;;;;;;5063118;28;20319;-80
2023/06/16 11:56:04;;;;;;;3.20;2.90;;;;;;;;;;5059650;28;20201;-79
2023/06/16 11:58:31;;;;;;;3.00;2.70;;;;;;;;;;5064802;28;20209;-79
2023/06/16 12:01:00;;;;;;;3.50;2.90;;;;;;;;;;5052821;28;20243;-79
2023/06/16 12:03:28;;;;;;;3.30;3.00;;;;;;;;;;5070329;28;20208;-78
2023/06/16 12:05:55;;;;;;;4.10;2.65;;;;;;;;;;5063431;28;20327;-79
2023/06/16 12:08:52;;;;;;;5.15;3.10;;;;;;;;;;5069979;28;20239;-78
2023/06/16 12:11:24;;;;;;;4.65;2.92;;;;;;;;;;5027389;28;20231;-78
2023/06/16 12:13:53;;;;;;;3.28;2.92;;;;;;;;;;5053110;28;20430;-78
2023/06/16 12:16:20;;;;;;;3.95;2.92;;;;;;;;;;5054377;28;20235;-78
2023/06/16 12:18:49;;;;;;;3.20;2.80;;;;;;;;;;5069683;28;20209;-78
2023/06/16 12:21:17;;;;;;;4.32;2.75;;;;;;;;;;5062299;28;20252;-79
2023/06/16 12:23:48;;;;;;;4.05;2.95;;;;;;;;;;5067191;28;20214;-79
2023/06/16 12:26:26;;;;;;;3.30;3.00;;;;;;;;;;5058694;28;20279;-78
2023/06/16 12:28:54;;;;;;;3.85;2.75;;;;;;;;;;5069752;28;20233;-78
2023/06/16 12:31:21;;;;;;;2.88;2.67;;;;;;;;;;5065479;28;20229;-78
2023/06/16 12:33:51;;;;;;;3.78;2.92;;;;;;;;;;5063767;28;20237;-78
2023/06/16 12:36:18;;;;;;;2.70;2.50;;;;;;;;;;5060627;28;20205;-79
2023/06/16 12:38:45;;;;;;;4.18;2.70;;;;;;;;;;5065086;28;20206;-79
2023/06/16 12:41:13;;;;;;;4.57;2.67;;;;;;;;;;5072156;28;20268;-80
2023/06/16 12:43:47;;;;;;;2.65;2.45;;;;;;;;;;5058075;28;20210;-79
2023/06/16 12:46:15;;;;;;;6.25;3.25;;;;;;;;;;5065711;28;20209;-79
2023/06/16 12:48:42;;;;;;;3.22;2.45;;;;;;;;;;5070405;28;20210;-79
2023/06/16 12:51:09;;;;;;;3.47;2.75;;;;;;;;;;5064804;28;20229;-79
2023/06/16 12:53:46;;;;;;;6.10;2.63;;;;;;;;;;5064950;28;20207;-78
2023/06/16 12:56:14;;;;;;;2.67;2.42;;;;;;;;;;5061947;28;20218;-78
2023/06/16 12:58:41;;;;;;;4.90;2.95;;;;;;;;;;5061606;28;20608;-78
2023/06/16 13:01:11;;;;;;;4.57;2.78;;;;;;;;;;5064037;28;20232;-78
2023/06/16 13:03:41;;;;;;;4.55;2.40;;;;;;;;;;5073041;28;20201;-78
2023/06/16 13:06:08;;;;;;;3.55;2.55;;;;;;;;;;5065050;28;20241;-78
2023/06/16 13:08:35;;;;;;;5.15;2.70;;;;;;;;;;5064452;28;20304;-78
2023/06/16 13:11:02;;;;;;;2.60;2.40;;;;;;;;;;5064424;28;20734;-78
2023/06/16 13:13:29;;;;;;;5.68;2.40;;;;;;;;;;5073340;28;20232;-78
2023/06/16 13:15:56;;;;;;;3.00;2.80;;;;;;;;;;5055738;28;20237;-78
2023/06/16 13:18:24;;;;;;;3.00;2.67;;;;;;;;;;5072905;28;20206;-78
2023/06/16 13:20:51;;;;;;;3.10;2.75;;;;;;;;;;5072334;28;20236;-78
2023/06/16 13:23:21;;;;;;;4.18;2.80;;;;;;;;;;5073229;28;20209;-78
2023/06/16 13:25:48;;;;;;;3.40;2.70;;;;;;;;;;5072390;28;20261;-78
2023/06/16 13:28:15;;;;;;;3.28;2.65;;;;;;;;;;5060794;28;20210;-79
2023/06/16 13:30:42;;;;;;;5.05;2.55;;;;;;;;;;5067719;28;20241;-78
2023/06/16 13:33:09;;;;;;;2.65;2.45;;;;;;;;;;5072729;28;20221;-78
2023/06/16 13:35:38;;;;;;;3.05;2.40;;;;;;;;;;5061053;28;20617;-78
2023/06/16 13:38:05;;;;;;;5.97;2.75;;;;;;;;;;5068762;28;20197;-79
2023/06/16 13:40:32;;;;;;;3.90;2.70;;;;;;;;;;5066107;28;20230;-79
2023/06/16 13:43:01;;;;;;;3.65;3.03;;;;;;;;;;5071267;28;20844;-79
2023/06/16 13:45:29;;;;;;;5.53;2.40;;;;;;;;;;5069680;28;20702;-79
2023/06/16 13:47:56;;;;;;;3.00;2.70;;;;;;;;;;5054352;28;20528;-78
2023/06/16 13:50:23;;;;;;;2.85;2.50;;;;;;;;;;5067674;28;20316;-79
2023/06/16 13:52:51;;;;;;;6.68;2.83;;;;;;;;;;5067016;28;20221;-79
2023/06/16 13:55:18;;;;;;;4.50;2.72;;;;;;;;;;5057889;28;20668;-79
2023/06/16 13:57:45;;;;;;;4.00;2.67;;;;;;;;;;5063671;28;20206;-78
2023/06/16 14:00:13;;;;;;;5.10;3.15;;;;;;;;;;5061005;28;20244;-79
2023/06/16 14:02:40;;;;;;;2.63;2.42;;;;;;;;;;5067243;28;20205;-79
2023/06/16 14:05:08;;;;;;;4.38;2.60;;;;;;;;;;5067306;28;20699;-78
2023/06/16 14:07:35;;;;;;;3.53;2.53;;;;;;;;;;5060033;28;20225;-78
2023/06/16 14:10:03;;;;;;;3.50;2.58;;;;;;;;;;5066104;28;20234;-78
2023/06/16 14:12:31;;;;;;;3.63;2.75;;;;;;;;;;5061406;28;20228;-78
2023/06/16 14:14:58;;;;;;;4.05;2.70;;;;;;;;;;5062379;28;20264;-78
2023/06/16 14:17:25;;;;;;;2.83;2.60;;;;;;;;;;5059534;28;20212;-77
2023/06/16 14:19:52;;;;;;;6.70;2.83;;;;;;;;;;5062970;28;20229;-79
2023/06/16 14:22:20;;;;;;;3.75;2.80;;;;;;;;;;5065696;28;20259;-80
2023/06/16 14:24:47;;;;;;;3.58;2.40;;;;;;;;;;5071747;28;20298;-79
2023/06/16 14:27:15;;;;;;;3.35;2.60;;;;;;;;;;5063277;28;20945;-79
2023/06/16 14:29:42;;;;;;;2.92;2.60;;;;;;;;;;5063198;28;20233;-79
2023/06/16 14:32:09;;;;;;;4.07;2.50;;;;;;;;;;5063327;28;20237;-79
2023/06/16 14:34:36;;;;;;;2.80;2.60;;;;;;;;;;5071573;28;20237;-80
2023/06/16 14:37:04;;;;;;;3.30;3.00;;;;;;;;;;5062007;28;20210;-76
2023/06/16 14:39:32;;;;;;;3.70;2.42;;;;;;;;;;5050780;28;20289;-78
2023/06/16 14:41:59;;;;;;;2.47;2.28;;;;;;;;;;5059463;28;20280;-80
2023/06/16 14:44:27;;;;;;;3.05;2.78;;;;;;;;;;5070467;28;20228;-80
2023/06/16 14:46:55;;;;;;;3.45;2.80;;;;;;;;;;5071164;28;20213;-79
2023/06/16 14:49:22;;;;;;;3.47;2.88;;;;;;;;;;5064625;28;20225;-78